createdAt,value
2023-01-18T00:00:21.931Z,98010.60
2023-01-18T00:03:49.762Z,98011.02
2023-01-18T00:07:17.466Z,98018.08
2023-01-18T00:10:45.415Z,98012.75
2023-01-18T00:14:13.219Z,98004.84
2023-01-18T00:17:41.265Z,97982.91
2023-01-18T00:21:09.225Z,97989.04
2023-01-18T00:24:36.802Z,97969.27
2023-01-18T00:28:04.680Z,97973.19
2023-01-18T00:31:32.592Z,97967.70
2023-01-18T00:35:00.459Z,97961.05
2023-01-18T00:38:28.239Z,97944.36
2023-01-18T00:41:56.009Z,97958.27
2023-01-18T00:45:23.937Z,97957.25
2023-01-18T00:48:51.759Z,97958.51
2023-01-18T00:52:19.497Z,97967.43
2023-01-18T00:55:47.198Z,97972.48
2023-01-18T00:59:15.056Z,97977.62
2023-01-18T01:02:42.847Z,97984.87
2023-01-18T01:06:10.559Z,97981.66
2023-01-18T01:09:38.326Z,97981.05
2023-01-18T01:12:46.909Z,97978.30
2023-01-18T01:16:14.927Z,97980.31
2023-01-18T01:19:42.887Z,97986.18
2023-01-18T01:23:10.718Z,97984.77
2023-01-18T01:26:38.713Z,97962.77
2023-01-18T01:30:06.501Z,97971.84
2023-01-18T01:33:34.172Z,97962.13
2023-01-18T01:37:02.299Z,97964.05
2023-01-18T01:40:30.394Z,97973.42
2023-01-18T01:43:58.379Z,97979.11
2023-01-18T01:47:26.445Z,97985.05
2023-01-18T01:50:54.256Z,97973.36
2023-01-18T01:54:21.822Z,97978.29
2023-01-18T01:57:49.557Z,97985.16
2023-01-18T02:01:17.476Z,97983.05
2023-01-18T02:04:45.140Z,97977.74
2023-01-18T02:08:12.925Z,97970.05
2023-01-18T02:11:40.952Z,97981.73
2023-01-18T02:15:08.750Z,97979.14
2023-01-18T02:18:36.824Z,97976.84
2023-01-18T02:22:04.601Z,97976.45
2023-01-18T02:25:32.367Z,97972.94
2023-01-18T02:29:00.178Z,97976.96
2023-01-18T02:32:27.958Z,97969.09
2023-01-18T02:35:55.840Z,97965.48
2023-01-18T02:39:23.741Z,97959.69
2023-01-18T02:42:51.608Z,97958.02
2023-01-18T02:46:19.455Z,97957.95
2023-01-18T02:49:47.207Z,97952.27
2023-01-18T02:53:15.037Z,97947.16
2023-01-18T02:56:42.737Z,97932.98
2023-01-18T03:00:10.577Z,97946.74
2023-01-18T03:03:38.512Z,97939.35
2023-01-18T03:07:06.317Z,97938.90
2023-01-18T03:10:34.079Z,97945.23
2023-01-18T03:14:01.939Z,97936.45
2023-01-18T03:17:29.743Z,97917.78
2023-01-18T03:20:57.393Z,97913.91
2023-01-18T03:24:25.555Z,97918.30
2023-01-18T03:27:53.335Z,97911.45
2023-01-18T03:31:21.180Z,97919.27
2023-01-18T03:34:49.017Z,97930.94
2023-01-18T03:38:16.786Z,97924.23
2023-01-18T03:41:44.412Z,97930.38
2023-01-18T03:44:52.997Z,97917.40
2023-01-18T03:47:41.447Z,97916.64
2023-01-18T03:51:09.261Z,97911.21
2023-01-18T03:54:37.471Z,97915.72
2023-01-18T03:57:27.174Z,97924.09
2023-01-18T04:00:54.992Z,97924.27
2023-01-18T04:03:43.949Z,97934.05
2023-01-18T04:07:11.826Z,97918.70
2023-01-18T04:10:39.570Z,97914.73
2023-01-18T04:14:07.523Z,97908.09
2023-01-18T04:17:35.324Z,97911.09
2023-01-18T04:21:03.390Z,97915.87
2023-01-18T04:24:31.567Z,97910.17
2023-01-18T04:27:59.309Z,97891.48
2023-01-18T04:31:10.966Z,97882.69
2023-01-18T04:34:38.825Z,97898.73
2023-01-18T04:37:27.858Z,97915.68
2023-01-18T04:40:55.749Z,97941.15
2023-01-18T04:44:23.639Z,97933.39
2023-01-18T04:47:51.473Z,97943.10
2023-01-18T04:51:19.986Z,97940.54
2023-01-18T04:54:56.522Z,97941.48
2023-01-18T04:58:10.919Z,97944.14
2023-01-18T05:01:39.480Z,97951.71
2023-01-18T05:04:29.978Z,97937.81
2023-01-18T05:07:58.516Z,97944.91
2023-01-18T05:11:27.407Z,97943.98
2023-01-18T05:14:36.952Z,97962.39
2023-01-18T05:18:04.566Z,97976.86
2023-01-18T05:21:32.495Z,97980.16
2023-01-18T05:25:00.260Z,97986.89
2023-01-18T05:28:27.841Z,98009.64
2023-01-18T05:31:55.475Z,98002.95
2023-01-18T05:35:09.530Z,97997.29
2023-01-18T05:38:37.395Z,98001.05
2023-01-18T05:41:45.295Z,97999.34
2023-01-18T05:45:13.608Z,98001.92
2023-01-18T05:48:18.056Z,97987.79
2023-01-18T05:51:46.031Z,97982.13
2023-01-18T05:55:13.997Z,97981.36
2023-01-18T05:58:02.090Z,97981.52
2023-01-18T06:01:29.719Z,97993.08
2023-01-18T06:04:57.382Z,97983.39
2023-01-18T06:08:24.821Z,97989.95
2023-01-18T06:11:52.695Z,97991.09
2023-01-18T06:15:20.526Z,97993.14
2023-01-18T06:18:48.216Z,97997.98
2023-01-18T06:21:57.095Z,97994.32
2023-01-18T06:25:24.661Z,97990.42
2023-01-18T06:28:32.639Z,97994.58
2023-01-18T06:32:00.318Z,97996.85
2023-01-18T06:35:28.040Z,98004.92
2023-01-18T06:38:55.616Z,98005.16
2023-01-18T06:42:23.271Z,98008.50
2023-01-18T06:45:52.307Z,98010.11
2023-01-18T06:49:18.562Z,98011.45
2023-01-18T06:52:30.169Z,98008.73
2023-01-18T06:55:58.053Z,98017.28
2023-01-18T06:59:08.474Z,98019.55
2023-01-18T07:02:34.727Z,98031.56
2023-01-18T07:06:02.361Z,98033.67
2023-01-18T07:09:30.259Z,98035.48
2023-01-18T07:12:58.307Z,98047.65
2023-01-18T07:16:25.775Z,98049.58
2023-01-18T07:19:33.858Z,98054.89
2023-01-18T07:23:01.763Z,98050.85
2023-01-18T07:26:29.454Z,98053.63
2023-01-18T07:29:57.374Z,98068.70
2023-01-18T07:33:25.428Z,98072.67
2023-01-18T07:36:53.460Z,98076.77
2023-01-18T07:40:21.062Z,98079.07
2023-01-18T07:43:49.351Z,98091.70
2023-01-18T07:47:16.906Z,98106.77
2023-01-18T07:50:44.761Z,98112.55
2023-01-18T07:54:12.411Z,98117.67
2023-01-18T07:57:40.658Z,98125.88
2023-01-18T08:01:08.517Z,98134.95
2023-01-18T08:04:36.259Z,98205.52
2023-01-18T08:08:04.068Z,98314.05
2023-01-18T08:11:31.996Z,98325.11
2023-01-18T08:14:59.665Z,98389.36
2023-01-18T08:18:08.358Z,98407.21
2023-01-18T08:21:36.026Z,98405.11
2023-01-18T08:24:44.008Z,98416.15
2023-01-18T08:27:52.657Z,98448.80
2023-01-18T08:31:20.268Z,98439.40
2023-01-18T08:34:48.195Z,98458.36
2023-01-18T08:38:16.263Z,98473.04
2023-01-18T08:41:44.480Z,98489.85
2023-01-18T08:45:12.425Z,98489.59
2023-01-18T08:48:40.312Z,98497.48
2023-01-18T08:52:08.261Z,98502.77
2023-01-18T08:55:36.276Z,98512.56
2023-01-18T08:59:03.951Z,98509.21
2023-01-18T09:02:31.934Z,98514.93
2023-01-18T09:05:59.593Z,98524.60
2023-01-18T09:08:51.363Z,98546.66
2023-01-18T09:12:00.793Z,98577.39
2023-01-18T09:15:28.518Z,98575.30
2023-01-18T09:18:56.097Z,98596.96
2023-01-18T09:22:20.089Z,98590.95
2023-01-18T09:25:09.218Z,98603.09
2023-01-18T09:28:13.480Z,98621.21
2023-01-18T09:30:42.785Z,98620.72
2023-01-18T09:33:37.461Z,98638.94
2023-01-18T09:36:40.038Z,98643.75
2023-01-18T09:40:07.768Z,98660.08
2023-01-18T09:43:35.514Z,98674.52
2023-01-18T09:47:03.301Z,98674.69
2023-01-18T09:50:11.997Z,98668.27
2023-01-18T09:53:39.857Z,98651.16
2023-01-18T09:57:07.575Z,98642.33
2023-01-18T10:00:35.383Z,98661.83
2023-01-18T10:04:03.226Z,98671.90
2023-01-18T10:07:31.043Z,98656.61
2023-01-18T10:10:58.558Z,98639.13
2023-01-18T10:14:26.307Z,98644.15
2023-01-18T10:17:54.135Z,98677.36
2023-01-18T10:21:21.925Z,98676.20
2023-01-18T10:24:29.541Z,98671.36
2023-01-18T10:27:57.818Z,98646.70
2023-01-18T10:31:25.717Z,98679.69
2023-01-18T10:34:53.346Z,98671.56
2023-01-18T10:38:20.978Z,98661.23
2023-01-18T10:41:48.790Z,98679.04
2023-01-18T10:45:16.370Z,98701.92
2023-01-18T10:48:43.925Z,98670.46
2023-01-18T10:52:11.509Z,98691.39
2023-01-18T10:55:20.299Z,98692.34
2023-01-18T10:58:48.037Z,98698.42
2023-01-18T11:02:15.713Z,98711.20
2023-01-18T11:05:43.434Z,98727.02
2023-01-18T11:09:11.111Z,98732.91
2023-01-18T11:12:38.780Z,98741.89
2023-01-18T11:15:26.988Z,98747.17
2023-01-18T11:18:35.868Z,98744.54
2023-01-18T11:22:03.959Z,98763.29
2023-01-18T11:25:15.661Z,98769.51
2023-01-18T11:28:43.573Z,98775.74
2023-01-18T11:31:53.054Z,98781.94
2023-01-18T11:35:20.673Z,98791.15
2023-01-18T11:38:30.283Z,98793.27
2023-01-18T11:41:57.964Z,98792.22
2023-01-18T11:45:09.671Z,98792.32
2023-01-18T11:48:25.327Z,98791.00
2023-01-18T11:51:36.640Z,98802.52
2023-01-18T11:55:04.378Z,98799.45
2023-01-18T11:58:31.901Z,98797.45
2023-01-18T12:01:59.354Z,98795.27
2023-01-18T12:05:27.007Z,98797.82
2023-01-18T12:08:54.646Z,98794.92
2023-01-18T12:12:17.878Z,98795.70
2023-01-18T12:15:30.329Z,98799.45
2023-01-18T12:18:39.894Z,98793.92
2023-01-18T12:22:07.424Z,98790.23
2023-01-18T12:24:56.120Z,98797.17
2023-01-18T12:27:48.240Z,98803.92
2023-01-18T12:30:19.756Z,98806.54
2023-01-18T12:33:07.991Z,98817.34
2023-01-18T12:36:17.709Z,98833.96
2023-01-18T12:39:45.529Z,98830.65
2023-01-18T12:43:13.201Z,98821.06
2023-01-18T12:46:21.650Z,98815.98
2023-01-18T12:49:49.091Z,98809.42
2023-01-18T12:53:16.638Z,98824.88
2023-01-18T12:56:25.387Z,98833.82
2023-01-18T12:59:17.319Z,98832.70
2023-01-18T13:02:25.921Z,98833.05
2023-01-18T13:05:34.349Z,98847.55
2023-01-18T13:08:59.179Z,98860.29
2023-01-18T13:12:27.084Z,98868.23
2023-01-18T13:15:35.970Z,98870.60
2023-01-18T13:18:44.451Z,98871.05
2023-01-18T13:21:52.140Z,98880.14
2023-01-18T13:25:19.834Z,98890.04
2023-01-18T13:28:47.378Z,98903.38
2023-01-18T13:31:56.085Z,98898.71
2023-01-18T13:35:19.670Z,98894.30
2023-01-18T13:38:41.088Z,98889.66
2023-01-18T13:41:59.860Z,98903.31
2023-01-18T13:45:14.042Z,98902.36
2023-01-18T13:48:23.987Z,98900.85
2023-01-18T13:51:47.068Z,98898.71
2023-01-18T13:54:35.536Z,98895.23
2023-01-18T13:57:23.928Z,98892.29
2023-01-18T14:00:32.409Z,98891.80
2023-01-18T14:03:44.284Z,98892.30
2023-01-18T14:06:54.123Z,98899.59
2023-01-18T14:10:16.930Z,98907.71
2023-01-18T14:13:44.721Z,98910.42
2023-01-18T14:16:53.593Z,98906.38
2023-01-18T14:20:03.400Z,98906.83
2023-01-18T14:23:15.091Z,98912.39
2023-01-18T14:26:23.922Z,98924.09
2023-01-18T14:29:15.589Z,98933.28
2023-01-18T14:32:43.313Z,98927.34
2023-01-18T14:36:07.478Z,98929.18
2023-01-18T14:39:35.139Z,98923.34
2023-01-18T14:42:45.239Z,98911.79
2023-01-18T14:46:13.015Z,98909.41
2023-01-18T14:49:06.336Z,98909.23
2023-01-18T14:52:15.761Z,98913.36
2023-01-18T14:55:43.613Z,98918.95
2023-01-18T14:59:11.867Z,98925.58
2023-01-18T15:02:40.139Z,98923.95
2023-01-18T15:05:48.141Z,98926.02
2023-01-18T15:09:15.767Z,98931.77
2023-01-18T15:12:43.267Z,98930.44
2023-01-18T15:16:11.242Z,98932.52
2023-01-18T15:19:20.529Z,98930.58
2023-01-18T15:22:48.741Z,98928.22
2023-01-18T15:26:16.454Z,98923.57
2023-01-18T15:29:44.298Z,98929.55
2023-01-18T15:33:11.921Z,98934.77
2023-01-18T15:36:39.729Z,98937.92
2023-01-18T15:39:28.919Z,98938.27
2023-01-18T15:42:18.143Z,98940.86
2023-01-18T15:45:45.705Z,98953.90
2023-01-18T15:49:13.306Z,98960.45
2023-01-18T15:52:42.654Z,98965.21
2023-01-18T15:56:08.633Z,98971.64
2023-01-18T15:59:36.392Z,98966.23
2023-01-18T16:03:04.633Z,98966.16
2023-01-18T16:06:31.835Z,98964.96
2023-01-18T16:09:40.456Z,98960.22
2023-01-18T16:13:08.225Z,98948.45
2023-01-18T16:16:16.881Z,98944.41
2023-01-18T16:19:25.544Z,98939.34
2023-01-18T16:22:53.422Z,98932.27
2023-01-18T16:26:21.345Z,98933.94
2023-01-18T16:29:48.981Z,98934.76
2023-01-18T16:33:16.667Z,98928.19
2023-01-18T16:36:27.588Z,98924.23
2023-01-18T16:39:34.117Z,98912.49
2023-01-18T16:43:01.891Z,98907.08
2023-01-18T16:46:29.726Z,98908.31
2023-01-18T16:49:57.452Z,98915.40
2023-01-18T16:53:26.144Z,98899.84
2023-01-18T16:56:53.851Z,98901.98
2023-01-18T17:00:21.531Z,98897.91
2023-01-18T17:03:51.711Z,98901.77
2023-01-18T17:06:59.572Z,98908.84
2023-01-18T17:09:52.634Z,98911.49
2023-01-18T17:13:18.881Z,98919.21
2023-01-18T17:16:46.629Z,98913.05
2023-01-18T17:19:54.525Z,98902.50
2023-01-18T17:23:22.249Z,98900.09
2023-01-18T17:26:50.142Z,98911.06
2023-01-18T17:29:59.280Z,98919.17
2023-01-18T17:33:26.969Z,98920.06
2023-01-18T17:36:54.946Z,98928.11
2023-01-18T17:40:30.892Z,98922.58
2023-01-18T17:43:50.038Z,98918.02
2023-01-18T17:47:17.773Z,98919.96
2023-01-18T17:50:45.664Z,98930.27
2023-01-18T17:54:20.476Z,98935.63
2023-01-18T17:57:22.392Z,98936.70
2023-01-18T18:00:50.240Z,98934.52
2023-01-18T18:03:58.923Z,98933.83
2023-01-18T18:06:31.492Z,98918.17
2023-01-18T18:09:56.943Z,98913.11
2023-01-18T18:13:24.565Z,98918.92
2023-01-18T18:16:52.484Z,98924.80
2023-01-18T18:20:22.120Z,98920.87
2023-01-18T18:23:29.321Z,98922.95
2023-01-18T18:26:57.111Z,98916.85
2023-01-18T18:30:05.392Z,98905.20
2023-01-18T18:33:34.464Z,98907.02
2023-01-18T18:37:01.096Z,98907.60
2023-01-18T18:40:28.882Z,98907.66
2023-01-18T18:43:18.029Z,98902.84
2023-01-18T18:46:26.847Z,98899.21
2023-01-18T18:49:54.529Z,98891.71
2023-01-18T18:53:29.577Z,98895.98
2023-01-18T18:56:50.420Z,98896.48
2023-01-18T18:59:38.662Z,98894.25
2023-01-18T19:02:46.913Z,98895.86
2023-01-18T19:06:14.613Z,98897.23
2023-01-18T19:09:42.362Z,98892.98
2023-01-18T19:13:10.253Z,98884.98
2023-01-18T19:15:59.809Z,98882.08
2023-01-18T19:19:08.529Z,98883.14
2023-01-18T19:22:16.658Z,98893.17
2023-01-18T19:25:44.756Z,98899.49
2023-01-18T19:28:33.416Z,98908.63
2023-01-18T19:32:01.375Z,98907.17
2023-01-18T19:35:29.208Z,98916.10
2023-01-18T19:38:59.968Z,98930.20
2023-01-18T19:42:25.422Z,98941.30
2023-01-18T19:45:53.049Z,98928.52
2023-01-18T19:48:41.883Z,98925.89
2023-01-18T19:52:09.565Z,98928.45
2023-01-18T19:55:37.398Z,98923.45
2023-01-18T19:59:05.010Z,98920.40
2023-01-18T20:02:32.931Z,98908.11
2023-01-18T20:05:22.188Z,98905.23
2023-01-18T20:08:50.133Z,98913.59
2023-01-18T20:12:18.108Z,98927.95
2023-01-18T20:15:45.786Z,98936.65
2023-01-18T20:19:01.488Z,98941.09
2023-01-18T20:22:29.229Z,98946.38
2023-01-18T20:25:37.828Z,98947.43
2023-01-18T20:28:45.817Z,98949.55
2023-01-18T20:32:16.738Z,98949.39
2023-01-18T20:35:41.429Z,98948.61
2023-01-18T20:38:50.115Z,98947.33
2023-01-18T20:42:17.762Z,98942.95
2023-01-18T20:45:45.591Z,98941.08
2023-01-18T20:49:13.494Z,98947.64
2023-01-18T20:52:41.285Z,98935.90
2023-01-18T20:56:17.064Z,98929.05
2023-01-18T20:59:37.202Z,98922.61
2023-01-18T21:03:05.297Z,98917.28
2023-01-18T21:06:33.104Z,98915.82
2023-01-18T21:10:00.912Z,98912.49
2023-01-18T21:13:28.675Z,98902.20
2023-01-18T21:16:56.544Z,98908.16
2023-01-18T21:20:24.366Z,98901.83
2023-01-18T21:23:52.048Z,98898.14
2023-01-18T21:27:00.825Z,98895.05
2023-01-18T21:30:08.831Z,98891.96
2023-01-18T21:33:36.500Z,98893.77
2023-01-18T21:37:04.356Z,98890.21
2023-01-18T21:40:13.187Z,98889.63
2023-01-18T21:43:41.001Z,98883.67
2023-01-18T21:46:52.850Z,98877.73
2023-01-18T21:50:20.553Z,98868.59
2023-01-18T21:53:48.222Z,98867.28
2023-01-18T21:57:16.390Z,98856.52
2023-01-18T22:00:44.047Z,98854.45
2023-01-18T22:04:11.816Z,98866.31
2023-01-18T22:07:42.596Z,98867.70
2023-01-18T22:11:10.045Z,98876.39
2023-01-18T22:14:37.663Z,98870.09
2023-01-18T22:18:05.291Z,98856.98
2023-01-18T22:21:15.978Z,98849.83
2023-01-18T22:24:43.559Z,98849.23
2023-01-18T22:28:11.358Z,98850.17
2023-01-18T22:31:39.216Z,98847.73
2023-01-18T22:35:06.858Z,98843.20
2023-01-18T22:38:34.457Z,98831.77
2023-01-18T22:42:02.169Z,98826.52
2023-01-18T22:45:31.477Z,98824.86
2023-01-18T22:48:59.178Z,98833.00
2023-01-18T22:52:09.762Z,98837.20
2023-01-18T22:55:37.673Z,98837.42
2023-01-18T22:59:05.362Z,98849.05
2023-01-18T23:02:29.033Z,98845.55
2023-01-18T23:05:56.769Z,98835.67
2023-01-18T23:09:16.273Z,98840.33
2023-01-18T23:12:44.180Z,98833.93
2023-01-18T23:16:11.857Z,98833.46
2023-01-18T23:19:39.693Z,98834.56
2023-01-18T23:23:07.362Z,98839.45
2023-01-18T23:26:35.048Z,98840.61
2023-01-18T23:30:02.777Z,98844.89
2023-01-18T23:33:11.436Z,98849.08
2023-01-18T23:36:39.189Z,98852.25
2023-01-18T23:40:06.797Z,98847.48
2023-01-18T23:43:34.494Z,98856.59
2023-01-18T23:47:02.016Z,98847.80
2023-01-18T23:50:10.630Z,98843.33
2023-01-18T23:53:18.339Z,98837.16
2023-01-18T23:56:46.042Z,98840.15
